sensor_id;sensor_type;location;lat;lon;timestamp;pressure;altitude;pressure_sealevel;temperature;humidity
64053;BME280;50299;49.524;8.536;2023-05-09T00:02:05;100777.25;;;13.22;73.64
64053;BME280;50299;49.524;8.536;2023-05-09T00:04:33;100781.56;;;13.11;73.92
64053;BME280;50299;49.524;8.536;2023-05-09T00:07:00;100769.28;;;13.20;75.00
64053;BME280;50299;49.524;8.536;2023-05-09T00:09:27;100774.25;;;13.27;74.32
64053;BME280;50299;49.524;8.536;2023-05-09T00:11:53;100773.44;;;13.26;72.75
64053;BME280;50299;49.524;8.536;2023-05-09T00:14:19;100767.50;;;13.16;73.83
64053;BME280;50299;49.524;8.536;2023-05-09T00:16:46;100768.66;;;13.15;75.14
64053;BME280;50299;49.524;8.536;2023-05-09T00:19:12;100769.13;;;13.17;75.35
64053;BME280;50299;49.524;8.536;2023-05-09T00:21:38;100760.03;;;13.07;76.32
64053;BME280;50299;49.524;8.536;2023-05-09T00:24:05;100754.56;;;12.78;71.70
64053;BME280;50299;49.524;8.536;2023-05-09T00:26:32;100761.34;;;12.59;72.12
64053;BME280;50299;49.524;8.536;2023-05-09T00:28:58;100755.34;;;12.19;73.96
64053;BME280;50299;49.524;8.536;2023-05-09T00:31:24;100745.03;;;12.28;76.75
64053;BME280;50299;49.524;8.536;2023-05-09T00:33:52;100750.09;;;12.56;77.83
64053;BME280;50299;49.524;8.536;2023-05-09T00:36:20;100745.63;;;12.72;74.38
64053;BME280;50299;49.524;8.536;2023-05-09T00:38:46;100744.75;;;12.80;74.36
64053;BME280;50299;49.524;8.536;2023-05-09T00:41:15;100749.50;;;12.80;73.93
64053;BME280;50299;49.524;8.536;2023-05-09T00:43:41;100743.81;;;12.76;74.08
64053;BME280;50299;49.524;8.536;2023-05-09T00:46:08;100738.19;;;12.55;73.16
64053;BME280;50299;49.524;8.536;2023-05-09T00:48:34;100742.50;;;12.44;76.83
64053;BME280;50299;49.524;8.536;2023-05-09T00:51:01;100734.78;;;12.20;74.11
64053;BME280;50299;49.524;8.536;2023-05-09T00:53:27;100732.56;;;12.14;74.18
64053;BME280;50299;49.524;8.536;2023-05-09T00:55:55;100734.88;;;12.03;75.41
64053;BME280;50299;49.524;8.536;2023-05-09T00:58:22;100733.78;;;12.25;76.16
64053;BME280;50299;49.524;8.536;2023-05-09T01:00:49;100737.44;;;12.46;75.69
64053;BME280;50299;49.524;8.536;2023-05-09T01:03:15;100735.41;;;12.34;73.76
64053;BME280;50299;49.524;8.536;2023-05-09T01:05:51;100731.06;;;12.16;75.14
64053;BME280;50299;49.524;8.536;2023-05-09T01:08:30;100730.41;;;12.19;75.56
64053;BME280;50299;49.524;8.536;2023-05-09T01:11:09;100735.19;;;12.40;76.15
64053;BME280;50299;49.524;8.536;2023-05-09T01:14:01;100727.41;;;12.63;75.30
64053;BME280;50299;49.524;8.536;2023-05-09T01:19:26;100723.81;;;12.62;74.39
64053;BME280;50299;49.524;8.536;2023-05-09T01:22:03;100722.69;;;12.63;72.44
64053;BME280;50299;49.524;8.536;2023-05-09T01:30:25;100705.94;;;12.21;75.32
64053;BME280;50299;49.524;8.536;2023-05-09T01:32:59;100697.16;;;12.19;75.56
64053;BME280;50299;49.524;8.536;2023-05-09T01:35:28;100693.22;;;12.20;73.86
64053;BME280;50299;49.524;8.536;2023-05-09T01:37:58;100693.00;;;11.96;72.79
64053;BME280;50299;49.524;8.536;2023-05-09T01:40:29;100696.00;;;11.82;74.43
64053;BME280;50299;49.524;8.536;2023-05-09T01:43:07;100700.59;;;11.78;74.11
64053;BME280;50299;49.524;8.536;2023-05-09T01:45:35;100686.44;;;11.62;75.53
64053;BME280;50299;49.524;8.536;2023-05-09T01:48:04;100689.69;;;11.64;75.12
64053;BME280;50299;49.524;8.536;2023-05-09T01:50:32;100692.59;;;11.68;75.64
64053;BME280;50299;49.524;8.536;2023-05-09T01:53:01;100688.06;;;11.63;75.02
64053;BME280;50299;49.524;8.536;2023-05-09T01:55:30;100689.22;;;11.53;75.93
64053;BME280;50299;49.524;8.536;2023-05-09T01:57:58;100686.66;;;11.48;75.88
64053;BME280;50299;49.524;8.536;2023-05-09T02:00:34;100684.19;;;11.47;74.79
64053;BME280;50299;49.524;8.536;2023-05-09T02:03:02;100684.16;;;11.55;77.88
64053;BME280;50299;49.524;8.536;2023-05-09T02:05:30;100682.22;;;11.47;72.85
64053;BME280;50299;49.524;8.536;2023-05-09T02:07:58;100683.91;;;11.40;75.51
64053;BME280;50299;49.524;8.536;2023-05-09T02:10:28;100675.13;;;11.20;72.90
64053;BME280;50299;49.524;8.536;2023-05-09T02:12:55;100675.31;;;11.15;74.61
64053;BME280;50299;49.524;8.536;2023-05-09T02:15:22;100670.94;;;10.88;73.89
64053;BME280;50299;49.524;8.536;2023-05-09T02:17:49;100674.03;;;10.95;75.64
64053;BME280;50299;49.524;8.536;2023-05-09T02:20:16;100681.53;;;10.95;74.88
64053;BME280;50299;49.524;8.536;2023-05-09T02:22:43;100679.41;;;10.92;76.23
64053;BME280;50299;49.524;8.536;2023-05-09T02:25:11;100676.94;;;10.81;75.03
64053;BME280;50299;49.524;8.536;2023-05-09T02:27:42;100675.44;;;10.49;74.50
64053;BME280;50299;49.524;8.536;2023-05-09T02:30:13;100679.84;;;10.59;78.28
64053;BME280;50299;49.524;8.536;2023-05-09T02:32:42;100678.22;;;10.67;76.79
64053;BME280;50299;49.524;8.536;2023-05-09T02:35:10;100685.72;;;10.66;74.65
64053;BME280;50299;49.524;8.536;2023-05-09T02:37:38;100688.94;;;10.59;73.58
64053;BME280;50299;49.524;8.536;2023-05-09T02:40:07;100682.44;;;10.47;76.62
64053;BME280;50299;49.524;8.536;2023-05-09T02:42:36;100682.59;;;10.42;77.35
64053;BME280;50299;49.524;8.536;2023-05-09T02:45:03;100688.94;;;10.51;76.67
64053;BME280;50299;49.524;8.536;2023-05-09T02:47:30;100677.41;;;10.57;75.02
64053;BME280;50299;49.524;8.536;2023-05-09T02:49:57;100674.47;;;10.63;73.11
64053;BME280;50299;49.524;8.536;2023-05-09T02:52:23;100671.88;;;10.57;74.37
64053;BME280;50299;49.524;8.536;2023-05-09T02:54:52;100666.81;;;10.59;73.88
64053;BME280;50299;49.524;8.536;2023-05-09T02:57:18;100659.50;;;10.55;73.52
64053;BME280;50299;49.524;8.536;2023-05-09T02:59:45;100656.56;;;10.51;73.40
64053;BME280;50299;49.524;8.536;2023-05-09T03:02:11;100657.88;;;10.54;75.19
64053;BME280;50299;49.524;8.536;2023-05-09T03:04:37;100651.72;;;10.57;74.67
64053;BME280;50299;49.524;8.536;2023-05-09T03:07:04;100667.16;;;10.58;72.32
64053;BME280;50299;49.524;8.536;2023-05-09T03:09:31;100657.25;;;10.57;71.62
64053;BME280;50299;49.524;8.536;2023-05-09T03:11:57;100657.09;;;10.53;71.66
64053;BME280;50299;49.524;8.536;2023-05-09T03:14:24;100649.44;;;10.50;71.92
64053;BME280;50299;49.524;8.536;2023-05-09T03:16:51;100653.34;;;10.58;77.94
64053;BME280;50299;49.524;8.536;2023-05-09T03:19:17;100650.56;;;10.49;72.59
64053;BME280;50299;49.524;8.536;2023-05-09T03:21:43;100638.66;;;10.31;75.36
64053;BME280;50299;49.524;8.536;2023-05-09T03:24:10;100642.19;;;10.06;73.02
64053;BME280;50299;49.524;8.536;2023-05-09T03:26:36;100642.78;;;9.85;73.51
64053;BME280;50299;49.524;8.536;2023-05-09T03:29:03;100646.78;;;9.71;75.58
64053;BME280;50299;49.524;8.536;2023-05-09T03:31:29;100639.66;;;9.78;79.05
64053;BME280;50299;49.524;8.536;2023-05-09T03:33:57;100636.13;;;9.86;74.08
64053;BME280;50299;49.524;8.536;2023-05-09T03:36:24;100628.47;;;9.75;75.24
64053;BME280;50299;49.524;8.536;2023-05-09T03:38:50;100631.72;;;9.77;77.50
64053;BME280;50299;49.524;8.536;2023-05-09T03:41:17;100630.00;;;10.16;80.14
64053;BME280;50299;49.524;8.536;2023-05-09T03:43:44;100634.28;;;10.48;78.60
64053;BME280;50299;49.524;8.536;2023-05-09T03:46:10;100632.31;;;10.22;73.61
64053;BME280;50299;49.524;8.536;2023-05-09T03:48:37;100625.97;;;10.22;75.91
64053;BME280;50299;49.524;8.536;2023-05-09T03:51:03;100633.66;;;10.51;79.37
64053;BME280;50299;49.524;8.536;2023-05-09T03:53:30;100635.31;;;10.87;78.77
64053;BME280;50299;49.524;8.536;2023-05-09T03:55:56;100636.28;;;10.99;75.25
64053;BME280;50299;49.524;8.536;2023-05-09T03:58:23;100629.41;;;11.05;74.10
64053;BME280;50299;49.524;8.536;2023-05-09T04:00:49;100632.34;;;11.09;75.71
64053;BME280;50299;49.524;8.536;2023-05-09T04:03:15;100628.44;;;11.10;76.01
64053;BME280;50299;49.524;8.536;2023-05-09T04:05:42;100627.78;;;11.13;75.84
64053;BME280;50299;49.524;8.536;2023-05-09T04:08:08;100633.59;;;11.38;75.89
64053;BME280;50299;49.524;8.536;2023-05-09T04:10:35;100640.81;;;11.59;78.13
64053;BME280;50299;49.524;8.536;2023-05-09T04:13:01;100635.44;;;11.80;75.29
64053;BME280;50299;49.524;8.536;2023-05-09T04:15:28;100632.06;;;11.96;75.68
64053;BME280;50299;49.524;8.536;2023-05-09T04:17:54;100632.09;;;12.17;75.77
64053;BME280;50299;49.524;8.536;2023-05-09T04:20:21;100634.97;;;12.29;72.84
64053;BME280;50299;49.524;8.536;2023-05-09T04:22:47;100630.09;;;11.58;70.69
64053;BME280;50299;49.524;8.536;2023-05-09T04:25:14;100633.53;;;11.55;72.79
64053;BME280;50299;49.524;8.536;2023-05-09T04:27:41;100633.63;;;11.76;76.34
64053;BME280;50299;49.524;8.536;2023-05-09T04:30:08;100628.59;;;12.07;77.00
64053;BME280;50299;49.524;8.536;2023-05-09T04:32:35;100639.03;;;12.31;74.25
64053;BME280;50299;49.524;8.536;2023-05-09T04:35:02;100650.41;;;12.39;73.79
64053;BME280;50299;49.524;8.536;2023-05-09T04:37:29;100646.13;;;12.41;72.53
64053;BME280;50299;49.524;8.536;2023-05-09T04:39:57;100644.72;;;12.35;71.20
64053;BME280;50299;49.524;8.536;2023-05-09T04:42:24;100647.16;;;12.37;77.06
64053;BME280;50299;49.524;8.536;2023-05-09T04:44:50;100643.91;;;12.55;75.80
64053;BME280;50299;49.524;8.536;2023-05-09T04:47:17;100643.13;;;12.55;70.63
64053;BME280;50299;49.524;8.536;2023-05-09T04:49:44;100634.91;;;12.67;76.35
64053;BME280;50299;49.524;8.536;2023-05-09T04:52:10;100631.97;;;12.85;75.76
64053;BME280;50299;49.524;8.536;2023-05-09T04:54:36;100629.25;;;12.97;76.20
64053;BME280;50299;49.524;8.536;2023-05-09T04:57:03;100623.34;;;12.98;71.28
64053;BME280;50299;49.524;8.536;2023-05-09T04:59:43;100624.31;;;12.81;71.06
64053;BME280;50299;49.524;8.536;2023-05-09T05:02:09;100621.13;;;12.92;74.21
64053;BME280;50299;49.524;8.536;2023-05-09T05:04:36;100624.09;;;12.87;71.97
64053;BME280;50299;49.524;8.536;2023-05-09T05:07:02;100619.56;;;12.40;72.51
64053;BME280;50299;49.524;8.536;2023-05-09T05:09:30;100611.91;;;12.16;73.71
64053;BME280;50299;49.524;8.536;2023-05-09T05:11:56;100609.06;;;12.25;74.66
64053;BME280;50299;49.524;8.536;2023-05-09T05:14:27;100608.81;;;12.39;74.29
64053;BME280;50299;49.524;8.536;2023-05-09T05:16:54;100610.44;;;12.40;73.29
64053;BME280;50299;49.524;8.536;2023-05-09T05:19:20;100614.97;;;12.44;75.60
64053;BME280;50299;49.524;8.536;2023-05-09T05:21:47;100604.25;;;12.64;75.57
64053;BME280;50299;49.524;8.536;2023-05-09T05:24:13;100600.63;;;12.84;76.33
64053;BME280;50299;49.524;8.536;2023-05-09T05:26:39;100607.88;;;13.10;74.78
64053;BME280;50299;49.524;8.536;2023-05-09T05:29:06;100608.41;;;13.36;76.68
64053;BME280;50299;49.524;8.536;2023-05-09T05:31:32;100604.63;;;13.65;77.16
64053;BME280;50299;49.524;8.536;2023-05-09T05:33:59;100593.88;;;13.88;75.45
64053;BME280;50299;49.524;8.536;2023-05-09T05:36:25;100587.03;;;14.10;75.92
64053;BME280;50299;49.524;8.536;2023-05-09T05:38:52;100582.72;;;14.25;76.50
64053;BME280;50299;49.524;8.536;2023-05-09T05:41:18;100573.88;;;14.47;76.65
64053;BME280;50299;49.524;8.536;2023-05-09T05:43:45;100579.38;;;14.60;73.96
64053;BME280;50299;49.524;8.536;2023-05-09T05:46:11;100585.97;;;14.67;73.87
64053;BME280;50299;49.524;8.536;2023-05-09T05:48:37;100589.91;;;14.66;72.67
64053;BME280;50299;49.524;8.536;2023-05-09T05:51:06;100595.69;;;14.73;71.45
64053;BME280;50299;49.524;8.536;2023-05-09T05:53:33;100596.19;;;14.63;71.77
64053;BME280;50299;49.524;8.536;2023-05-09T05:55:59;100595.22;;;14.71;70.34
64053;BME280;50299;49.524;8.536;2023-05-09T05:58:26;100593.41;;;14.63;71.06
64053;BME280;50299;49.524;8.536;2023-05-09T06:00:53;100591.19;;;14.69;70.76
64053;BME280;50299;49.524;8.536;2023-05-09T06:03:19;100603.53;;;14.84;71.58
64053;BME280;50299;49.524;8.536;2023-05-09T06:05:46;100598.91;;;15.03;70.25
64053;BME280;50299;49.524;8.536;2023-05-09T06:08:13;100595.56;;;15.26;70.40
64053;BME280;50299;49.524;8.536;2023-05-09T06:10:39;100593.78;;;15.49;69.68
64053;BME280;50299;49.524;8.536;2023-05-09T06:13:06;100590.19;;;15.49;69.08
64053;BME280;50299;49.524;8.536;2023-05-09T06:15:33;100585.97;;;15.55;68.63
64053;BME280;50299;49.524;8.536;2023-05-09T06:17:59;100584.53;;;15.61;66.36
64053;BME280;50299;49.524;8.536;2023-05-09T06:20:27;100585.31;;;15.62;68.65
64053;BME280;50299;49.524;8.536;2023-05-09T06:22:53;100586.22;;;15.66;66.72
64053;BME280;50299;49.524;8.536;2023-05-09T06:25:20;100583.44;;;15.82;67.43
64053;BME280;50299;49.524;8.536;2023-05-09T06:27:46;100582.97;;;15.95;68.45
64053;BME280;50299;49.524;8.536;2023-05-09T06:30:13;100572.78;;;16.03;65.50
64053;BME280;50299;49.524;8.536;2023-05-09T06:32:52;100576.13;;;16.09;65.00
64053;BME280;50299;49.524;8.536;2023-05-09T06:35:19;100578.84;;;16.24;66.68
64053;BME280;50299;49.524;8.536;2023-05-09T06:37:45;100574.03;;;16.41;64.78
64053;BME280;50299;49.524;8.536;2023-05-09T06:40:14;100575.50;;;16.35;63.75
64053;BME280;50299;49.524;8.536;2023-05-09T06:42:40;100573.88;;;16.34;63.34
64053;BME280;50299;49.524;8.536;2023-05-09T06:45:07;100576.13;;;16.28;64.36
64053;BME280;50299;49.524;8.536;2023-05-09T06:47:34;100578.84;;;16.24;65.05
64053;BME280;50299;49.524;8.536;2023-05-09T06:50:00;100569.28;;;16.06;63.47
64053;BME280;50299;49.524;8.536;2023-05-09T06:52:27;100557.34;;;15.74;66.41
64053;BME280;50299;49.524;8.536;2023-05-09T06:54:53;100557.94;;;15.48;66.17
64053;BME280;50299;49.524;8.536;2023-05-09T06:57:19;100556.75;;;15.49;66.63
64053;BME280;50299;49.524;8.536;2023-05-09T06:59:46;100551.19;;;15.33;67.82
64053;BME280;50299;49.524;8.536;2023-05-09T07:02:12;100545.38;;;15.22;67.88
64053;BME280;50299;49.524;8.536;2023-05-09T07:04:39;100545.25;;;15.19;68.73
64053;BME280;50299;49.524;8.536;2023-05-09T07:07:05;100541.84;;;15.25;68.89
64053;BME280;50299;49.524;8.536;2023-05-09T07:09:32;100536.63;;;15.24;69.64
64053;BME280;50299;49.524;8.536;2023-05-09T07:11:59;100546.50;;;15.21;67.67
64053;BME280;50299;49.524;8.536;2023-05-09T07:14:26;100548.16;;;15.22;68.61
64053;BME280;50299;49.524;8.536;2023-05-09T07:16:52;100544.28;;;14.83;67.75
64053;BME280;50299;49.524;8.536;2023-05-09T07:19:27;100540.06;;;14.73;70.05
64053;BME280;50299;49.524;8.536;2023-05-09T07:21:53;100536.47;;;14.89;69.49
64053;BME280;50299;49.524;8.536;2023-05-09T07:24:20;100532.03;;;14.72;68.85
64053;BME280;50299;49.524;8.536;2023-05-09T07:26:46;100531.75;;;14.61;68.72
64053;BME280;50299;49.524;8.536;2023-05-09T07:29:13;100519.78;;;14.73;70.42
64053;BME280;50299;49.524;8.536;2023-05-09T07:31:39;100515.66;;;14.83;68.85
64053;BME280;50299;49.524;8.536;2023-05-09T07:34:06;100515.06;;;15.21;70.28
64053;BME280;50299;49.524;8.536;2023-05-09T07:36:32;100513.91;;;15.22;69.74
64053;BME280;50299;49.524;8.536;2023-05-09T07:39:00;100511.06;;;15.18;68.20
64053;BME280;50299;49.524;8.536;2023-05-09T07:41:27;100506.91;;;15.44;70.03
64053;BME280;50299;49.524;8.536;2023-05-09T07:43:54;100510.69;;;15.71;66.56
64053;BME280;50299;49.524;8.536;2023-05-09T07:46:21;100501.53;;;15.70;65.85
64053;BME280;50299;49.524;8.536;2023-05-09T07:48:47;100499.31;;;15.60;68.09
64053;BME280;50299;49.524;8.536;2023-05-09T07:51:14;100502.00;;;15.72;66.75
64053;BME280;50299;49.524;8.536;2023-05-09T07:53:40;100498.50;;;15.75;67.75
64053;BME280;50299;49.524;8.536;2023-05-09T07:56:07;100490.72;;;15.85;65.90
64053;BME280;50299;49.524;8.536;2023-05-09T07:58:33;100490.91;;;15.92;66.25
64053;BME280;50299;49.524;8.536;2023-05-09T08:01:00;100491.44;;;16.36;66.63
64053;BME280;50299;49.524;8.536;2023-05-09T08:03:26;100495.63;;;16.65;63.88
64053;BME280;50299;49.524;8.536;2023-05-09T08:05:54;100489.00;;;16.73;63.67
64053;BME280;50299;49.524;8.536;2023-05-09T08:08:21;100485.50;;;16.99;62.59
64053;BME280;50299;49.524;8.536;2023-05-09T08:10:48;100484.31;;;17.00;63.59
64053;BME280;50299;49.524;8.536;2023-05-09T08:13:14;100472.63;;;17.41;61.64
64053;BME280;50299;49.524;8.536;2023-05-09T08:15:41;100462.00;;;17.27;62.09
64053;BME280;50299;49.524;8.536;2023-05-09T08:18:07;100462.25;;;17.18;61.62
64053;BME280;50299;49.524;8.536;2023-05-09T08:20:34;100462.38;;;17.25;62.26
64053;BME280;50299;49.524;8.536;2023-05-09T08:23:01;100452.41;;;17.51;63.14
64053;BME280;50299;49.524;8.536;2023-05-09T08:25:27;100451.34;;;17.59;62.21
64053;BME280;50299;49.524;8.536;2023-05-09T08:27:54;100457.75;;;17.90;60.50
64053;BME280;50299;49.524;8.536;2023-05-09T08:30:21;100453.88;;;17.98;59.71
64053;BME280;50299;49.524;8.536;2023-05-09T08:32:48;100450.03;;;18.10;58.78
64053;BME280;50299;49.524;8.536;2023-05-09T08:35:14;100447.50;;;18.31;58.76
64053;BME280;50299;49.524;8.536;2023-05-09T08:37:41;100443.81;;;18.23;58.00
64053;BME280;50299;49.524;8.536;2023-05-09T08:40:08;100448.47;;;17.82;59.61
64053;BME280;50299;49.524;8.536;2023-05-09T08:42:36;100447.09;;;17.99;59.70
64053;BME280;50299;49.524;8.536;2023-05-09T08:45:09;100443.34;;;17.88;60.00
64053;BME280;50299;49.524;8.536;2023-05-09T08:47:37;100441.16;;;17.74;60.11
64053;BME280;50299;49.524;8.536;2023-05-09T08:50:04;100444.19;;;17.92;62.67
64053;BME280;50299;49.524;8.536;2023-05-09T08:52:32;100440.88;;;17.83;59.41
64053;BME280;50299;49.524;8.536;2023-05-09T08:55:02;100433.47;;;17.97;59.81
64053;BME280;50299;49.524;8.536;2023-05-09T08:57:31;100428.94;;;18.16;60.11
64053;BME280;50299;49.524;8.536;2023-05-09T09:00:01;100427.34;;;18.52;60.45
64053;BME280;50299;49.524;8.536;2023-05-09T09:02:28;100426.56;;;18.55;57.24
64053;BME280;50299;49.524;8.536;2023-05-09T09:04:56;100425.25;;;18.45;58.96
64053;BME280;50299;49.524;8.536;2023-05-09T09:07:22;100420.31;;;17.98;57.27
64053;BME280;50299;49.524;8.536;2023-05-09T09:09:51;100426.47;;;17.81;58.16
64053;BME280;50299;49.524;8.536;2023-05-09T09:12:21;100424.22;;;17.93;58.11
64053;BME280;50299;49.524;8.536;2023-05-09T09:14:52;100420.09;;;18.10;58.26
64053;BME280;50299;49.524;8.536;2023-05-09T09:17:20;100418.69;;;17.97;59.49
64053;BME280;50299;49.524;8.536;2023-05-09T09:19:54;100412.97;;;17.86;58.54
64053;BME280;50299;49.524;8.536;2023-05-09T09:22:21;100409.06;;;17.61;59.51
64053;BME280;50299;49.524;8.536;2023-05-09T09:24:47;100406.09;;;18.10;59.27
64053;BME280;50299;49.524;8.536;2023-05-09T09:27:14;100395.16;;;17.98;58.11
64053;BME280;50299;49.524;8.536;2023-05-09T09:29:40;100385.81;;;17.87;59.05
64053;BME280;50299;49.524;8.536;2023-05-09T09:32:07;100394.56;;;18.15;58.19
64053;BME280;50299;49.524;8.536;2023-05-09T09:34:33;100390.22;;;18.21;57.49
64053;BME280;50299;49.524;8.536;2023-05-09T09:37:00;100393.19;;;18.36;55.89
64053;BME280;50299;49.524;8.536;2023-05-09T09:39:26;100391.06;;;18.66;58.18
64053;BME280;50299;49.524;8.536;2023-05-09T09:41:53;100389.69;;;18.87;57.18
64053;BME280;50299;49.524;8.536;2023-05-09T09:44:21;100380.09;;;18.88;58.07
64053;BME280;50299;49.524;8.536;2023-05-09T09:46:51;100379.38;;;18.98;55.39
64053;BME280;50299;49.524;8.536;2023-05-09T09:49:22;100375.84;;;19.08;56.08
64053;BME280;50299;49.524;8.536;2023-05-09T09:51:54;100365.88;;;19.14;54.80
64053;BME280;50299;49.524;8.536;2023-05-09T09:54:22;100372.66;;;19.10;54.17
64053;BME280;50299;49.524;8.536;2023-05-09T09:56:52;100371.88;;;19.09;56.51
64053;BME280;50299;49.524;8.536;2023-05-09T09:59:21;100364.63;;;19.08;54.97
64053;BME280;50299;49.524;8.536;2023-05-09T10:01:59;100361.94;;;19.22;55.69
64053;BME280;50299;49.524;8.536;2023-05-09T10:04:33;100360.25;;;19.11;53.19
64053;BME280;50299;49.524;8.536;2023-05-09T10:07:01;100356.53;;;18.96;54.47
64053;BME280;50299;49.524;8.536;2023-05-09T10:09:32;100358.66;;;19.10;55.45
64053;BME280;50299;49.524;8.536;2023-05-09T10:12:02;100349.63;;;19.41;55.81
64053;BME280;50299;49.524;8.536;2023-05-09T10:14:30;100348.19;;;19.69;56.13
64053;BME280;50299;49.524;8.536;2023-05-09T10:17:02;100333.88;;;19.95;55.96
64053;BME280;50299;49.524;8.536;2023-05-09T10:19:29;100330.69;;;20.11;53.98
64053;BME280;50299;49.524;8.536;2023-05-09T10:22:01;100329.16;;;20.67;54.12
64053;BME280;50299;49.524;8.536;2023-05-09T10:24:40;100326.31;;;21.10;51.98
64053;BME280;50299;49.524;8.536;2023-05-09T10:27:11;100309.44;;;21.10;49.79
64053;BME280;50299;49.524;8.536;2023-05-09T10:29:50;100311.50;;;21.06;50.16
64053;BME280;50299;49.524;8.536;2023-05-09T10:32:38;100304.66;;;21.07;49.64
64053;BME280;50299;49.524;8.536;2023-05-09T10:35:09;100293.38;;;21.14;49.35
64053;BME280;50299;49.524;8.536;2023-05-09T10:37:36;100286.56;;;21.19;48.52
64053;BME280;50299;49.524;8.536;2023-05-09T10:40:03;100288.13;;;21.41;50.07
64053;BME280;50299;49.524;8.536;2023-05-09T10:42:30;100282.06;;;21.43;46.65
64053;BME280;50299;49.524;8.536;2023-05-09T10:44:57;100275.66;;;21.39;48.99
64053;BME280;50299;49.524;8.536;2023-05-09T10:47:27;100265.13;;;21.61;47.51
64053;BME280;50299;49.524;8.536;2023-05-09T10:49:55;100268.00;;;21.47;48.94
64053;BME280;50299;49.524;8.536;2023-05-09T10:52:21;100271.59;;;21.54;49.25
64053;BME280;50299;49.524;8.536;2023-05-09T10:55:00;100254.06;;;22.02;50.27
64053;BME280;50299;49.524;8.536;2023-05-09T10:57:28;100256.34;;;22.22;47.73
64053;BME280;50299;49.524;8.536;2023-05-09T10:59:56;100249.19;;;22.10;46.15
64053;BME280;50299;49.524;8.536;2023-05-09T11:02:23;100248.22;;;22.27;46.58
64053;BME280;50299;49.524;8.536;2023-05-09T11:05:18;100238.19;;;22.26;45.77
64053;BME280;50299;49.524;8.536;2023-05-09T11:07:46;100231.94;;;22.49;46.31
64053;BME280;50299;49.524;8.536;2023-05-09T11:10:17;100233.09;;;22.55;45.31
64053;BME280;50299;49.524;8.536;2023-05-09T11:12:58;100225.69;;;22.76;43.99
64053;BME280;50299;49.524;8.536;2023-05-09T11:15:25;100222.47;;;22.74;41.91
64053;BME280;50299;49.524;8.536;2023-05-09T11:18:10;100212.56;;;22.96;45.55
64053;BME280;50299;49.524;8.536;2023-05-09T11:20:44;100209.06;;;22.85;44.52
64053;BME280;50299;49.524;8.536;2023-05-09T11:23:15;100210.84;;;22.72;43.95
64053;BME280;50299;49.524;8.536;2023-05-09T11:25:45;100201.41;;;22.44;46.75
64053;BME280;50299;49.524;8.536;2023-05-09T11:28:25;100194.53;;;22.49;45.71
64053;BME280;50299;49.524;8.536;2023-05-09T11:30:53;100191.47;;;22.74;49.76
64053;BME280;50299;49.524;8.536;2023-05-09T11:33:35;100182.50;;;22.86;47.15
64053;BME280;50299;49.524;8.536;2023-05-09T11:36:17;100185.63;;;22.54;43.99
64053;BME280;50299;49.524;8.536;2023-05-09T11:38:45;100188.56;;;22.43;43.07
64053;BME280;50299;49.524;8.536;2023-05-09T11:41:13;100183.78;;;22.36;44.02
64053;BME280;50299;49.524;8.536;2023-05-09T11:43:41;100180.94;;;22.40;43.69
64053;BME280;50299;49.524;8.536;2023-05-09T11:46:08;100172.88;;;22.42;47.24
64053;BME280;50299;49.524;8.536;2023-05-09T11:48:38;100173.22;;;22.48;44.83
64053;BME280;50299;49.524;8.536;2023-05-09T11:51:05;100175.38;;;22.33;43.96
64053;BME280;50299;49.524;8.536;2023-05-09T11:53:32;100171.66;;;22.43;43.90
64053;BME280;50299;49.524;8.536;2023-05-09T11:56:06;100157.84;;;22.59;44.91
64053;BME280;50299;49.524;8.536;2023-05-09T11:58:37;100164.13;;;22.71;43.10
64053;BME280;50299;49.524;8.536;2023-05-09T12:01:04;100153.06;;;22.11;43.78
64053;BME280;50299;49.524;8.536;2023-05-09T12:03:31;100155.53;;;22.06;45.34
64053;BME280;50299;49.524;8.536;2023-05-09T12:05:58;100146.78;;;21.89;46.53
64053;BME280;50299;49.524;8.536;2023-05-09T12:08:25;100139.50;;;21.99;45.14
64053;BME280;50299;49.524;8.536;2023-05-09T12:10:53;100137.03;;;21.53;45.11
64053;BME280;50299;49.524;8.536;2023-05-09T12:13:19;100139.13;;;21.38;46.48
64053;BME280;50299;49.524;8.536;2023-05-09T12:15:46;100135.88;;;21.43;45.63
64053;BME280;50299;49.524;8.536;2023-05-09T12:18:13;100130.25;;;21.43;46.39
64053;BME280;50299;49.524;8.536;2023-05-09T12:23:10;100118.41;;;21.73;47.21
64053;BME280;50299;49.524;8.536;2023-05-09T12:25:37;100118.75;;;21.75;44.91
64053;BME280;50299;49.524;8.536;2023-05-09T12:28:04;100106.66;;;21.82;45.47
64053;BME280;50299;49.524;8.536;2023-05-09T12:30:31;100101.84;;;21.79;44.40
64053;BME280;50299;49.524;8.536;2023-05-09T12:32:57;100098.94;;;21.93;43.41
64053;BME280;50299;49.524;8.536;2023-05-09T12:35:24;100091.50;;;21.72;42.91
64053;BME280;50299;49.524;8.536;2023-05-09T12:37:55;100090.34;;;21.62;42.24
64053;BME280;50299;49.524;8.536;2023-05-09T12:40:23;100079.69;;;21.84;46.47
64053;BME280;50299;49.524;8.536;2023-05-09T12:42:49;100072.72;;;22.03;45.88
64053;BME280;50299;49.524;8.536;2023-05-09T12:45:19;100071.22;;;21.88;45.08
64053;BME280;50299;49.524;8.536;2023-05-09T12:47:50;100065.06;;;21.00;45.41
64053;BME280;50299;49.524;8.536;2023-05-09T12:50:17;100057.16;;;20.73;49.67
64053;BME280;50299;49.524;8.536;2023-05-09T12:52:49;100056.25;;;20.94;49.61
64053;BME280;50299;49.524;8.536;2023-05-09T12:55:28;100047.28;;;21.13;48.65
64053;BME280;50299;49.524;8.536;2023-05-09T12:58:00;100049.13;;;21.45;49.76
64053;BME280;50299;49.524;8.536;2023-05-09T13:00:27;100046.91;;;21.67;49.13
64053;BME280;50299;49.524;8.536;2023-05-09T13:02:54;100046.22;;;21.56;47.07
64053;BME280;50299;49.524;8.536;2023-05-09T13:05:21;100044.53;;;21.65;43.73
64053;BME280;50299;49.524;8.536;2023-05-09T13:07:49;100034.09;;;21.62;45.16